createdAt,value
2018-08-22T16:02:49.001Z,5.57
2018-08-22T16:05:17.230Z,6.70
2018-08-22T16:07:45.133Z,6.70
2018-08-22T16:10:13.386Z,5.73
2018-08-22T16:12:41.585Z,5.77
2018-08-22T16:15:09.757Z,6.30
2018-08-22T16:17:37.987Z,6.80
2018-08-22T16:20:06.167Z,6.63
2018-08-22T16:22:34.802Z,6.40
2018-08-22T16:25:03.023Z,6.77
2018-08-22T16:27:31.195Z,5.83
2018-08-22T16:29:59.405Z,6.47
2018-08-22T16:32:27.605Z,7.30
2018-08-22T16:34:55.770Z,6.60
2018-08-22T16:37:23.720Z,6.93
2018-08-22T16:39:51.859Z,7.80
2018-08-22T16:42:24.185Z,7.73
2018-08-22T16:44:52.315Z,8.23
2018-08-22T16:47:24.564Z,8.10
2018-08-22T16:49:52.754Z,7.57
2018-08-22T16:52:20.939Z,8.63
2018-08-22T16:54:54.374Z,10.30
2018-08-22T16:57:22.306Z,8.10
2018-08-22T16:59:50.461Z,9.60
2018-08-22T17:02:18.653Z,8.30
2018-08-22T17:04:46.823Z,7.53
2018-08-22T17:07:16.627Z,9.27
2018-08-22T17:09:48.043Z,8.67
2018-08-22T17:12:16.283Z,9.20
2018-08-22T17:14:44.458Z,10.13
2018-08-22T17:17:12.645Z,9.77
2018-08-22T17:19:40.585Z,9.80
2018-08-22T17:22:08.736Z,9.10
2018-08-22T17:24:36.911Z,11.23
2018-08-22T17:27:05.172Z,10.30
2018-08-22T17:29:33.102Z,9.93
2018-08-22T17:32:04.947Z,10.53
2018-08-22T17:34:33.446Z,10.47
2018-08-22T17:37:06.765Z,10.17
2018-08-22T17:39:34.694Z,11.03
2018-08-22T17:42:02.892Z,11.80
2018-08-22T17:44:31.085Z,11.80
2018-08-22T17:46:59.406Z,10.33
2018-08-22T17:49:27.608Z,11.03
2018-08-22T17:51:59.626Z,11.90
2018-08-22T17:54:27.972Z,10.83
2018-08-22T17:57:01.428Z,10.80
2018-08-22T17:59:29.374Z,12.03
2018-08-22T18:01:58.609Z,11.97
2018-08-22T18:04:26.598Z,11.07
2018-08-22T18:06:54.580Z,12.00
2018-08-22T18:09:22.754Z,10.17
2018-08-22T18:11:50.932Z,11.00
2018-08-22T18:14:19.122Z,11.70
2018-08-22T18:16:50.339Z,11.33
2018-08-22T18:19:18.567Z,13.70
2018-08-22T18:21:46.980Z,10.50
2018-08-22T18:24:14.910Z,11.17
2018-08-22T18:26:46.822Z,10.73
2018-08-22T18:29:14.712Z,11.33
2018-08-22T18:31:42.901Z,10.40
2018-08-22T18:34:11.067Z,10.40
2018-08-22T18:36:39.261Z,9.20
2018-08-22T18:39:10.761Z,10.33
2018-08-22T18:41:38.943Z,9.87
2018-08-22T18:44:07.097Z,9.20
2018-08-22T18:46:35.069Z,9.20
2018-08-22T18:49:03.593Z,10.10
2018-08-22T18:51:32.069Z,10.00
2018-08-22T18:54:00.997Z,9.07
2018-08-22T18:56:29.124Z,9.80
2018-08-22T18:58:57.294Z,10.20
2018-08-22T19:01:25.233Z,9.90
2018-08-22T19:03:55.329Z,10.20
2018-08-22T19:06:23.498Z,9.77
2018-08-22T19:08:51.678Z,10.30
2018-08-22T19:11:20.486Z,9.30
2018-08-22T19:13:48.653Z,9.57
2018-08-22T19:16:16.845Z,10.40
2018-08-22T19:18:45.018Z,9.43
2018-08-22T19:21:13.183Z,11.10
2018-08-22T19:23:41.119Z,10.00
2018-08-22T19:26:09.062Z,9.93
2018-08-22T19:28:55.734Z,10.10
2018-08-22T19:31:23.905Z,9.90
2018-08-22T19:33:52.094Z,10.27
2018-08-22T19:36:20.259Z,11.00
2018-08-22T19:38:48.521Z,10.20
2018-08-22T19:41:23.719Z,10.70
2018-08-22T19:43:52.007Z,8.70
2018-08-22T19:46:20.281Z,10.00
2018-08-22T19:48:48.644Z,9.33
2018-08-22T19:51:16.933Z,9.20
2018-08-22T19:53:57.240Z,9.07
2018-08-22T19:56:25.820Z,9.70
2018-08-22T19:58:53.897Z,10.40
2018-08-22T20:01:22.109Z,10.30
2018-08-22T20:03:51.268Z,11.07
2018-08-22T20:06:20.148Z,9.27
2018-08-22T20:08:48.805Z,9.53
2018-08-22T20:11:43.243Z,10.10
2018-08-22T20:14:11.461Z,9.37
2018-08-22T20:16:39.386Z,9.23
2018-08-22T20:19:07.569Z,9.20
2018-08-22T20:21:36.671Z,8.63
2018-08-22T20:24:06.231Z,8.03
2018-08-22T20:26:34.871Z,8.47
2018-08-22T20:29:03.671Z,8.33
2018-08-22T20:31:32.408Z,8.50
2018-08-22T20:34:05.674Z,8.70
2018-08-22T20:36:33.847Z,8.70
2018-08-22T20:39:06.661Z,9.00
2018-08-22T20:41:34.709Z,8.77
2018-08-22T20:44:04.943Z,8.80
2018-08-22T20:46:33.105Z,8.47
2018-08-22T20:49:01.277Z,8.23
2018-08-22T20:51:30.663Z,9.67
2018-08-22T20:54:04.193Z,8.80
2018-08-22T20:56:32.389Z,8.67
2018-08-22T20:59:00.541Z,8.40
2018-08-22T21:01:28.709Z,8.40
2018-08-22T21:03:56.910Z,9.10
2018-08-22T21:06:24.837Z,8.27
2018-08-22T21:08:53.022Z,7.90
2018-08-22T21:11:20.982Z,9.70
2018-08-22T21:13:49.211Z,8.47
2018-08-22T21:16:17.073Z,8.73
2018-08-22T21:18:45.233Z,8.63
2018-08-22T21:21:21.506Z,8.23
2018-08-22T21:23:49.440Z,8.03
2018-08-22T21:26:27.300Z,8.97
2018-08-22T21:28:55.508Z,10.50
2018-08-22T21:31:24.493Z,9.40
2018-08-22T21:33:52.915Z,10.40
2018-08-22T21:36:21.111Z,10.07
2018-08-22T21:38:49.286Z,9.97
2018-08-22T21:41:17.462Z,13.90
2018-08-22T21:43:45.665Z,10.53
2018-08-22T21:46:13.845Z,10.53
2018-08-22T21:48:42.038Z,10.77
2018-08-22T21:51:09.952Z,11.90
2018-08-22T21:53:37.915Z,12.90
2018-08-22T21:56:06.081Z,13.10
2018-08-22T21:58:34.269Z,11.50
